sensor_id;sensor_type;location;lat;lon;timestamp;P1;durP1;ratioP1;P2;durP2;ratioP2
14760;SDS011;7472;45.396;5.272;2022-12-04T00:00:07;37.03;;;25.13;;
14760;SDS011;7472;45.396;5.272;2022-12-04T00:02:35;39.08;;;25.55;;
14760;SDS011;7472;45.396;5.272;2022-12-04T00:05:02;38.90;;;26.10;;
14760;SDS011;7472;45.396;5.272;2022-12-04T00:07:31;38.35;;;25.92;;
14760;SDS011;7472;45.396;5.272;2022-12-04T00:09:58;39.35;;;26.45;;
14760;SDS011;7472;45.396;5.272;2022-12-04T00:12:26;43.90;;;28.15;;
14760;SDS011;7472;45.396;5.272;2022-12-04T00:14:53;40.65;;;26.88;;
14760;SDS011;7472;45.396;5.272;2022-12-04T00:17:21;42.38;;;27.75;;
14760;SDS011;7472;45.396;5.272;2022-12-04T00:19:48;44.25;;;27.70;;
14760;SDS011;7472;45.396;5.272;2022-12-04T00:22:15;40.58;;;27.15;;
14760;SDS011;7472;45.396;5.272;2022-12-04T00:24:46;40.80;;;27.75;;
14760;SDS011;7472;45.396;5.272;2022-12-04T00:27:14;41.63;;;27.75;;
14760;SDS011;7472;45.396;5.272;2022-12-04T00:29:41;42.88;;;25.40;;
14760;SDS011;7472;45.396;5.272;2022-12-04T00:32:08;38.47;;;25.42;;
14760;SDS011;7472;45.396;5.272;2022-12-04T00:34:36;41.00;;;28.05;;
14760;SDS011;7472;45.396;5.272;2022-12-04T00:37:03;41.45;;;27.38;;
14760;SDS011;7472;45.396;5.272;2022-12-04T00:39:31;37.88;;;26.77;;
14760;SDS011;7472;45.396;5.272;2022-12-04T00:41:59;41.53;;;26.98;;
14760;SDS011;7472;45.396;5.272;2022-12-04T00:44:27;36.83;;;26.70;;
14760;SDS011;7472;45.396;5.272;2022-12-04T00:46:54;42.10;;;26.35;;
14760;SDS011;7472;45.396;5.272;2022-12-04T00:49:21;41.72;;;27.15;;
14760;SDS011;7472;45.396;5.272;2022-12-04T00:51:49;43.92;;;28.38;;
14760;SDS011;7472;45.396;5.272;2022-12-04T00:54:16;41.17;;;27.52;;
14760;SDS011;7472;45.396;5.272;2022-12-04T00:56:43;41.35;;;27.38;;
14760;SDS011;7472;45.396;5.272;2022-12-04T00:59:12;41.55;;;26.08;;
14760;SDS011;7472;45.396;5.272;2022-12-04T01:01:40;46.67;;;27.75;;
14760;SDS011;7472;45.396;5.272;2022-12-04T01:04:07;37.58;;;26.52;;
14760;SDS011;7472;45.396;5.272;2022-12-04T01:06:34;38.90;;;26.38;;
14760;SDS011;7472;45.396;5.272;2022-12-04T01:09:03;38.35;;;25.00;;
14760;SDS011;7472;45.396;5.272;2022-12-04T01:11:30;42.97;;;26.90;;
14760;SDS011;7472;45.396;5.272;2022-12-04T01:13:58;37.58;;;24.98;;
14760;SDS011;7472;45.396;5.272;2022-12-04T01:16:28;36.58;;;24.33;;
14760;SDS011;7472;45.396;5.272;2022-12-04T01:18:56;37.72;;;25.70;;
14760;SDS011;7472;45.396;5.272;2022-12-04T01:21:23;37.75;;;25.23;;
14760;SDS011;7472;45.396;5.272;2022-12-04T01:23:50;36.25;;;25.27;;
14760;SDS011;7472;45.396;5.272;2022-12-04T01:26:18;36.05;;;25.23;;
14760;SDS011;7472;45.396;5.272;2022-12-04T01:28:45;34.03;;;25.90;;
14760;SDS011;7472;45.396;5.272;2022-12-04T01:31:13;37.25;;;24.90;;
14760;SDS011;7472;45.396;5.272;2022-12-04T01:33:42;38.38;;;24.77;;
14760;SDS011;7472;45.396;5.272;2022-12-04T01:36:11;36.53;;;24.63;;
14760;SDS011;7472;45.396;5.272;2022-12-04T01:38:38;33.55;;;22.77;;
14760;SDS011;7472;45.396;5.272;2022-12-04T01:41:07;34.78;;;23.77;;
14760;SDS011;7472;45.396;5.272;2022-12-04T01:43:35;36.20;;;24.05;;
14760;SDS011;7472;45.396;5.272;2022-12-04T01:46:03;34.97;;;24.73;;
14760;SDS011;7472;45.396;5.272;2022-12-04T01:48:31;41.45;;;25.05;;
14760;SDS011;7472;45.396;5.272;2022-12-04T01:51:02;33.08;;;23.73;;
14760;SDS011;7472;45.396;5.272;2022-12-04T01:53:31;33.58;;;22.55;;
14760;SDS011;7472;45.396;5.272;2022-12-04T01:55:59;31.90;;;22.92;;
14760;SDS011;7472;45.396;5.272;2022-12-04T01:58:29;33.30;;;22.17;;
14760;SDS011;7472;45.396;5.272;2022-12-04T02:00:58;30.38;;;22.42;;
14760;SDS011;7472;45.396;5.272;2022-12-04T02:03:26;31.40;;;22.63;;
14760;SDS011;7472;45.396;5.272;2022-12-04T02:05:54;30.67;;;21.58;;
14760;SDS011;7472;45.396;5.272;2022-12-04T02:08:23;33.85;;;23.00;;
14760;SDS011;7472;45.396;5.272;2022-12-04T02:10:52;31.65;;;21.45;;
14760;SDS011;7472;45.396;5.272;2022-12-04T02:13:23;35.05;;;22.70;;
14760;SDS011;7472;45.396;5.272;2022-12-04T02:15:53;36.17;;;23.35;;
14760;SDS011;7472;45.396;5.272;2022-12-04T02:18:25;34.80;;;23.25;;
14760;SDS011;7472;45.396;5.272;2022-12-04T02:20:56;30.70;;;22.35;;
14760;SDS011;7472;45.396;5.272;2022-12-04T02:23:31;33.25;;;23.05;;
14760;SDS011;7472;45.396;5.272;2022-12-04T02:26:04;33.00;;;23.55;;
14760;SDS011;7472;45.396;5.272;2022-12-04T02:28:39;34.33;;;23.33;;
14760;SDS011;7472;45.396;5.272;2022-12-04T02:31:10;35.20;;;23.25;;
14760;SDS011;7472;45.396;5.272;2022-12-04T02:33:40;34.90;;;23.55;;
14760;SDS011;7472;45.396;5.272;2022-12-04T02:36:10;35.65;;;23.70;;
14760;SDS011;7472;45.396;5.272;2022-12-04T02:38:39;32.45;;;23.00;;
14760;SDS011;7472;45.396;5.272;2022-12-04T02:41:10;34.67;;;22.40;;
14760;SDS011;7472;45.396;5.272;2022-12-04T02:43:41;33.05;;;21.65;;
14760;SDS011;7472;45.396;5.272;2022-12-04T02:46:10;34.53;;;23.02;;
14760;SDS011;7472;45.396;5.272;2022-12-04T02:48:40;31.42;;;21.65;;
14760;SDS011;7472;45.396;5.272;2022-12-04T02:51:10;35.25;;;23.52;;
14760;SDS011;7472;45.396;5.272;2022-12-04T02:53:40;33.45;;;22.52;;
14760;SDS011;7472;45.396;5.272;2022-12-04T02:56:09;33.20;;;23.50;;
14760;SDS011;7472;45.396;5.272;2022-12-04T02:58:38;38.30;;;23.95;;
14760;SDS011;7472;45.396;5.272;2022-12-04T03:01:10;36.58;;;25.15;;
14760;SDS011;7472;45.396;5.272;2022-12-04T03:03:48;36.88;;;23.45;;
14760;SDS011;7472;45.396;5.272;2022-12-04T03:06:17;36.28;;;25.73;;
14760;SDS011;7472;45.396;5.272;2022-12-04T03:08:47;36.33;;;25.17;;
14760;SDS011;7472;45.396;5.272;2022-12-04T03:11:16;45.13;;;28.65;;
14760;SDS011;7472;45.396;5.272;2022-12-04T03:13:44;39.70;;;28.70;;
14760;SDS011;7472;45.396;5.272;2022-12-04T03:16:16;42.80;;;29.17;;
14760;SDS011;7472;45.396;5.272;2022-12-04T03:18:45;42.53;;;27.63;;
14760;SDS011;7472;45.396;5.272;2022-12-04T03:21:13;40.30;;;27.25;;
14760;SDS011;7472;45.396;5.272;2022-12-04T03:23:43;42.17;;;27.70;;
14760;SDS011;7472;45.396;5.272;2022-12-04T03:26:15;39.60;;;27.05;;
14760;SDS011;7472;45.396;5.272;2022-12-04T03:28:47;40.70;;;27.08;;
14760;SDS011;7472;45.396;5.272;2022-12-04T03:31:16;41.55;;;26.92;;
14760;SDS011;7472;45.396;5.272;2022-12-04T03:33:46;40.92;;;26.77;;
14760;SDS011;7472;45.396;5.272;2022-12-04T03:36:15;38.20;;;26.98;;
14760;SDS011;7472;45.396;5.272;2022-12-04T03:38:45;38.38;;;25.30;;
14760;SDS011;7472;45.396;5.272;2022-12-04T03:41:15;36.08;;;24.15;;
14760;SDS011;7472;45.396;5.272;2022-12-04T03:43:45;34.75;;;24.33;;
14760;SDS011;7472;45.396;5.272;2022-12-04T03:46:16;37.85;;;24.80;;
14760;SDS011;7472;45.396;5.272;2022-12-04T03:48:49;37.60;;;23.83;;
14760;SDS011;7472;45.396;5.272;2022-12-04T03:51:19;38.58;;;26.08;;
14760;SDS011;7472;45.396;5.272;2022-12-04T03:53:48;36.67;;;24.92;;
14760;SDS011;7472;45.396;5.272;2022-12-04T03:56:18;37.53;;;23.95;;
14760;SDS011;7472;45.396;5.272;2022-12-04T03:58:47;36.45;;;25.38;;
14760;SDS011;7472;45.396;5.272;2022-12-04T04:01:18;36.10;;;24.13;;
14760;SDS011;7472;45.396;5.272;2022-12-04T04:03:48;34.13;;;23.42;;
14760;SDS011;7472;45.396;5.272;2022-12-04T04:06:17;36.72;;;23.60;;
14760;SDS011;7472;45.396;5.272;2022-12-04T04:08:46;31.80;;;21.75;;
14760;SDS011;7472;45.396;5.272;2022-12-04T04:11:15;32.88;;;22.95;;
14760;SDS011;7472;45.396;5.272;2022-12-04T04:13:45;34.25;;;24.90;;
14760;SDS011;7472;45.396;5.272;2022-12-04T04:16:44;32.30;;;23.20;;
14760;SDS011;7472;45.396;5.272;2022-12-04T04:19:31;36.17;;;24.05;;
14760;SDS011;7472;45.396;5.272;2022-12-04T04:22:18;37.25;;;24.33;;
14760;SDS011;7472;45.396;5.272;2022-12-04T04:25:04;37.22;;;23.83;;
14760;SDS011;7472;45.396;5.272;2022-12-04T04:27:33;38.08;;;24.88;;
14760;SDS011;7472;45.396;5.272;2022-12-04T04:30:00;36.30;;;24.23;;
14760;SDS011;7472;45.396;5.272;2022-12-04T04:32:31;36.85;;;25.60;;
14760;SDS011;7472;45.396;5.272;2022-12-04T04:35:03;42.60;;;24.98;;
14760;SDS011;7472;45.396;5.272;2022-12-04T04:37:33;37.85;;;25.40;;
14760;SDS011;7472;45.396;5.272;2022-12-04T04:40:04;41.00;;;25.85;;
14760;SDS011;7472;45.396;5.272;2022-12-04T04:42:34;34.88;;;24.20;;
14760;SDS011;7472;45.396;5.272;2022-12-04T04:45:03;34.70;;;24.40;;
14760;SDS011;7472;45.396;5.272;2022-12-04T04:47:35;37.55;;;24.60;;
14760;SDS011;7472;45.396;5.272;2022-12-04T04:50:04;40.83;;;25.67;;
14760;SDS011;7472;45.396;5.272;2022-12-04T04:52:33;36.20;;;24.33;;
14760;SDS011;7472;45.396;5.272;2022-12-04T04:55:00;36.88;;;24.23;;
14760;SDS011;7472;45.396;5.272;2022-12-04T04:57:29;37.42;;;26.15;;
14760;SDS011;7472;45.396;5.272;2022-12-04T04:59:56;37.55;;;25.33;;
14760;SDS011;7472;45.396;5.272;2022-12-04T05:02:25;33.92;;;24.50;;
14760;SDS011;7472;45.396;5.272;2022-12-04T05:04:54;35.38;;;23.35;;
14760;SDS011;7472;45.396;5.272;2022-12-04T05:07:21;37.47;;;26.30;;
14760;SDS011;7472;45.396;5.272;2022-12-04T05:09:49;37.72;;;25.77;;
14760;SDS011;7472;45.396;5.272;2022-12-04T05:12:16;38.45;;;26.35;;
14760;SDS011;7472;45.396;5.272;2022-12-04T05:14:45;38.88;;;26.90;;
14760;SDS011;7472;45.396;5.272;2022-12-04T05:17:12;42.10;;;26.98;;
14760;SDS011;7472;45.396;5.272;2022-12-04T05:19:39;37.10;;;25.20;;
14760;SDS011;7472;45.396;5.272;2022-12-04T05:22:22;39.65;;;27.15;;
14760;SDS011;7472;45.396;5.272;2022-12-04T05:24:50;37.65;;;26.08;;
14760;SDS011;7472;45.396;5.272;2022-12-04T05:27:17;39.95;;;26.65;;
14760;SDS011;7472;45.396;5.272;2022-12-04T05:29:45;38.65;;;27.42;;
14760;SDS011;7472;45.396;5.272;2022-12-04T05:32:13;38.78;;;26.85;;
14760;SDS011;7472;45.396;5.272;2022-12-04T05:34:40;43.67;;;27.40;;
14760;SDS011;7472;45.396;5.272;2022-12-04T05:37:07;38.47;;;26.13;;
14760;SDS011;7472;45.396;5.272;2022-12-04T05:39:36;36.10;;;24.63;;
14760;SDS011;7472;45.396;5.272;2022-12-04T05:42:04;32.22;;;22.90;;
14760;SDS011;7472;45.396;5.272;2022-12-04T05:44:31;38.85;;;24.95;;
14760;SDS011;7472;45.396;5.272;2022-12-04T05:46:58;41.85;;;28.80;;
14760;SDS011;7472;45.396;5.272;2022-12-04T05:49:27;42.97;;;27.83;;
14760;SDS011;7472;45.396;5.272;2022-12-04T05:51:54;39.13;;;27.15;;
14760;SDS011;7472;45.396;5.272;2022-12-04T05:54:22;43.33;;;28.42;;
14760;SDS011;7472;45.396;5.272;2022-12-04T05:56:51;42.75;;;29.00;;
14760;SDS011;7472;45.396;5.272;2022-12-04T05:59:18;42.60;;;26.48;;
14760;SDS011;7472;45.396;5.272;2022-12-04T06:01:46;40.78;;;27.52;;
14760;SDS011;7472;45.396;5.272;2022-12-04T06:04:13;40.03;;;26.05;;
14760;SDS011;7472;45.396;5.272;2022-12-04T06:06:40;37.45;;;24.95;;
14760;SDS011;7472;45.396;5.272;2022-12-04T06:09:08;38.35;;;24.65;;
14760;SDS011;7472;45.396;5.272;2022-12-04T06:11:36;42.08;;;27.77;;
14760;SDS011;7472;45.396;5.272;2022-12-04T06:14:07;39.05;;;27.17;;
14760;SDS011;7472;45.396;5.272;2022-12-04T06:16:36;45.47;;;27.73;;
14760;SDS011;7472;45.396;5.272;2022-12-04T06:19:04;38.10;;;25.88;;
14760;SDS011;7472;45.396;5.272;2022-12-04T06:21:32;37.50;;;25.08;;
14760;SDS011;7472;45.396;5.272;2022-12-04T06:24:00;41.45;;;26.33;;
14760;SDS011;7472;45.396;5.272;2022-12-04T06:26:28;40.67;;;27.38;;
14760;SDS011;7472;45.396;5.272;2022-12-04T06:28:56;38.53;;;25.58;;
14760;SDS011;7472;45.396;5.272;2022-12-04T06:31:25;35.88;;;25.48;;
14760;SDS011;7472;45.396;5.272;2022-12-04T06:33:53;37.70;;;26.30;;
14760;SDS011;7472;45.396;5.272;2022-12-04T06:36:21;39.05;;;25.20;;
14760;SDS011;7472;45.396;5.272;2022-12-04T06:38:49;41.00;;;25.70;;
14760;SDS011;7472;45.396;5.272;2022-12-04T06:41:17;39.40;;;26.30;;
14760;SDS011;7472;45.396;5.272;2022-12-04T06:43:45;42.72;;;26.58;;
14760;SDS011;7472;45.396;5.272;2022-12-04T06:46:13;37.55;;;25.30;;
14760;SDS011;7472;45.396;5.272;2022-12-04T06:48:42;42.67;;;27.50;;
14760;SDS011;7472;45.396;5.272;2022-12-04T06:51:10;44.60;;;29.35;;
14760;SDS011;7472;45.396;5.272;2022-12-04T06:53:38;45.55;;;29.45;;
14760;SDS011;7472;45.396;5.272;2022-12-04T06:56:06;46.22;;;29.15;;
14760;SDS011;7472;45.396;5.272;2022-12-04T06:58:34;42.70;;;26.98;;
14760;SDS011;7472;45.396;5.272;2022-12-04T07:01:05;45.08;;;28.98;;
14760;SDS011;7472;45.396;5.272;2022-12-04T07:03:32;38.80;;;28.50;;
14760;SDS011;7472;45.396;5.272;2022-12-04T07:06:09;42.45;;;26.95;;
14760;SDS011;7472;45.396;5.272;2022-12-04T07:08:37;43.85;;;27.52;;
14760;SDS011;7472;45.396;5.272;2022-12-04T07:11:04;41.88;;;26.88;;
14760;SDS011;7472;45.396;5.272;2022-12-04T07:13:32;44.90;;;27.77;;
14760;SDS011;7472;45.396;5.272;2022-12-04T07:15:59;36.20;;;24.48;;
14760;SDS011;7472;45.396;5.272;2022-12-04T07:18:27;38.92;;;26.05;;
14760;SDS011;7472;45.396;5.272;2022-12-04T07:20:54;46.70;;;28.52;;
14760;SDS011;7472;45.396;5.272;2022-12-04T07:23:23;46.72;;;29.35;;
14760;SDS011;7472;45.396;5.272;2022-12-04T07:25:50;51.97;;;35.45;;
14760;SDS011;7472;45.396;5.272;2022-12-04T07:28:18;55.90;;;43.30;;
14760;SDS011;7472;45.396;5.272;2022-12-04T07:30:45;54.65;;;41.17;;
14760;SDS011;7472;45.396;5.272;2022-12-04T07:33:12;56.63;;;40.58;;
14760;SDS011;7472;45.396;5.272;2022-12-04T07:35:40;44.67;;;31.35;;
14760;SDS011;7472;45.396;5.272;2022-12-04T07:38:07;48.60;;;36.05;;
14760;SDS011;7472;45.396;5.272;2022-12-04T07:40:37;45.58;;;28.92;;
14760;SDS011;7472;45.396;5.272;2022-12-04T07:43:04;42.60;;;28.40;;
14760;SDS011;7472;45.396;5.272;2022-12-04T07:45:31;39.90;;;27.30;;
14760;SDS011;7472;45.396;5.272;2022-12-04T07:47:59;39.40;;;25.80;;
14760;SDS011;7472;45.396;5.272;2022-12-04T07:50:26;39.72;;;25.88;;
14760;SDS011;7472;45.396;5.272;2022-12-04T07:52:54;40.55;;;26.75;;
14760;SDS011;7472;45.396;5.272;2022-12-04T07:55:21;34.53;;;23.60;;
14760;SDS011;7472;45.396;5.272;2022-12-04T07:57:50;38.30;;;26.45;;
14760;SDS011;7472;45.396;5.272;2022-12-04T08:00:18;38.45;;;26.50;;
14760;SDS011;7472;45.396;5.272;2022-12-04T08:02:45;34.70;;;23.13;;
14760;SDS011;7472;45.396;5.272;2022-12-04T08:05:13;35.75;;;24.38;;
14760;SDS011;7472;45.396;5.272;2022-12-04T08:07:40;36.55;;;23.95;;
14760;SDS011;7472;45.396;5.272;2022-12-04T08:10:08;36.83;;;23.48;;
14760;SDS011;7472;45.396;5.272;2022-12-04T08:12:35;40.30;;;25.38;;
14760;SDS011;7472;45.396;5.272;2022-12-04T08:15:04;38.45;;;26.30;;
14760;SDS011;7472;45.396;5.272;2022-12-04T08:17:32;37.58;;;25.50;;
14760;SDS011;7472;45.396;5.272;2022-12-04T08:19:59;42.35;;;26.65;;
14760;SDS011;7472;45.396;5.272;2022-12-04T08:22:27;35.10;;;24.25;;
14760;SDS011;7472;45.396;5.272;2022-12-04T08:24:55;37.55;;;24.85;;
14760;SDS011;7472;45.396;5.272;2022-12-04T08:27:22;32.70;;;22.63;;
14760;SDS011;7472;45.396;5.272;2022-12-04T08:29:50;37.40;;;25.75;;
14760;SDS011;7472;45.396;5.272;2022-12-04T08:32:19;38.22;;;23.92;;
14760;SDS011;7472;45.396;5.272;2022-12-04T08:34:48;32.28;;;19.25;;
14760;SDS011;7472;45.396;5.272;2022-12-04T08:37:16;35.33;;;23.33;;
14760;SDS011;7472;45.396;5.272;2022-12-04T08:39:44;32.90;;;23.40;;
14760;SDS011;7472;45.396;5.272;2022-12-04T08:42:11;34.40;;;22.85;;
14760;SDS011;7472;45.396;5.272;2022-12-04T08:44:39;35.00;;;23.17;;
14760;SDS011;7472;45.396;5.272;2022-12-04T08:47:06;33.60;;;23.10;;
14760;SDS011;7472;45.396;5.272;2022-12-04T08:49:35;33.78;;;21.83;;
14760;SDS011;7472;45.396;5.272;2022-12-04T08:52:03;34.28;;;23.40;;
14760;SDS011;7472;45.396;5.272;2022-12-04T08:54:31;31.75;;;22.10;;
14760;SDS011;7472;45.396;5.272;2022-12-04T08:56:58;34.03;;;22.40;;
14760;SDS011;7472;45.396;5.272;2022-12-04T08:59:27;33.17;;;22.35;;
14760;SDS011;7472;45.396;5.272;2022-12-04T09:01:54;35.35;;;23.73;;
14760;SDS011;7472;45.396;5.272;2022-12-04T09:04:22;31.77;;;22.55;;
14760;SDS011;7472;45.396;5.272;2022-12-04T09:06:51;36.22;;;23.35;;
14760;SDS011;7472;45.396;5.272;2022-12-04T09:09:19;31.08;;;20.88;;
14760;SDS011;7472;45.396;5.272;2022-12-04T09:11:46;34.73;;;22.60;;
14760;SDS011;7472;45.396;5.272;2022-12-04T09:14:14;32.05;;;20.90;;
14760;SDS011;7472;45.396;5.272;2022-12-04T09:16:43;30.25;;;20.67;;
14760;SDS011;7472;45.396;5.272;2022-12-04T09:19:10;28.75;;;20.13;;
14760;SDS011;7472;45.396;5.272;2022-12-04T09:21:38;34.70;;;22.77;;
14760;SDS011;7472;45.396;5.272;2022-12-04T09:24:07;32.47;;;20.77;;
14760;SDS011;7472;45.396;5.272;2022-12-04T09:26:34;27.85;;;18.23;;
14760;SDS011;7472;45.396;5.272;2022-12-04T09:29:02;25.33;;;16.63;;
14760;SDS011;7472;45.396;5.272;2022-12-04T09:31:30;26.60;;;18.67;;
14760;SDS011;7472;45.396;5.272;2022-12-04T09:33:58;28.88;;;19.65;;
14760;SDS011;7472;45.396;5.272;2022-12-04T09:36:26;28.98;;;19.77;;
14760;SDS011;7472;45.396;5.272;2022-12-04T09:38:54;28.35;;;19.63;;
14760;SDS011;7472;45.396;5.272;2022-12-04T09:41:32;31.92;;;19.50;;
14760;SDS011;7472;45.396;5.272;2022-12-04T09:44:07;30.25;;;20.67;;
14760;SDS011;7472;45.396;5.272;2022-12-04T09:46:37;31.83;;;21.73;;
14760;SDS011;7472;45.396;5.272;2022-12-04T09:49:09;29.83;;;20.83;;
14760;SDS011;7472;45.396;5.272;2022-12-04T09:51:37;32.20;;;21.27;;
14760;SDS011;7472;45.396;5.272;2022-12-04T09:54:08;30.15;;;20.83;;
14760;SDS011;7472;45.396;5.272;2022-12-04T09:56:39;28.75;;;19.67;;
14760;SDS011;7472;45.396;5.272;2022-12-04T09:59:09;30.40;;;20.38;;
14760;SDS011;7472;45.396;5.272;2022-12-04T10:01:40;27.67;;;18.63;;
14760;SDS011;7472;45.396;5.272;2022-12-04T10:04:09;23.20;;;16.42;;
14760;SDS011;7472;45.396;5.272;2022-12-04T10:06:38;24.73;;;17.38;;
14760;SDS011;7472;45.396;5.272;2022-12-04T10:09:08;34.90;;;25.60;;
14760;SDS011;7472;45.396;5.272;2022-12-04T10:11:43;45.17;;;30.15;;
14760;SDS011;7472;45.396;5.272;2022-12-04T10:14:14;50.78;;;31.55;;
14760;SDS011;7472;45.396;5.272;2022-12-04T10:16:48;45.80;;;32.42;;
14760;SDS011;7472;45.396;5.272;2022-12-04T10:19:20;41.45;;;30.25;;
14760;SDS011;7472;45.396;5.272;2022-12-04T10:21:53;52.20;;;36.75;;
14760;SDS011;7472;45.396;5.272;2022-12-04T10:24:30;49.38;;;33.80;;
14760;SDS011;7472;45.396;5.272;2022-12-04T10:27:04;44.03;;;30.30;;
14760;SDS011;7472;45.396;5.272;2022-12-04T10:29:35;46.20;;;33.50;;
14760;SDS011;7472;45.396;5.272;2022-12-04T10:32:16;46.03;;;30.50;;
14760;SDS011;7472;45.396;5.272;2022-12-04T10:34:44;108.40;;;78.28;;
14760;SDS011;7472;45.396;5.272;2022-12-04T10:37:13;90.85;;;67.72;;
14760;SDS011;7472;45.396;5.272;2022-12-04T10:39:41;54.35;;;35.55;;
14760;SDS011;7472;45.396;5.272;2022-12-04T10:42:13;43.22;;;28.88;;
14760;SDS011;7472;45.396;5.272;2022-12-04T10:44:42;44.90;;;32.17;;
14760;SDS011;7472;45.396;5.272;2022-12-04T10:47:10;47.83;;;32.42;;
14760;SDS011;7472;45.396;5.272;2022-12-04T10:49:38;48.03;;;34.33;;
14760;SDS011;7472;45.396;5.272;2022-12-04T10:52:05;37.30;;;24.90;;
14760;SDS011;7472;45.396;5.272;2022-12-04T10:54:36;35.53;;;23.23;;
14760;SDS011;7472;45.396;5.272;2022-12-04T10:57:05;36.47;;;26.17;;
14760;SDS011;7472;45.396;5.272;2022-12-04T10:59:37;31.52;;;22.75;;
14760;SDS011;7472;45.396;5.272;2022-12-04T11:02:18;28.30;;;20.55;;
14760;SDS011;7472;45.396;5.272;2022-12-04T11:04:50;30.88;;;21.15;;
14760;SDS011;7472;45.396;5.272;2022-12-04T11:07:19;26.95;;;19.48;;
14760;SDS011;7472;45.396;5.272;2022-12-04T11:09:52;29.60;;;21.38;;
14760;SDS011;7472;45.396;5.272;2022-12-04T11:12:20;26.13;;;18.55;;
14760;SDS011;7472;45.396;5.272;2022-12-04T11:14:59;25.48;;;18.00;;
14760;SDS011;7472;45.396;5.272;2022-12-04T11:17:27;24.15;;;17.67;;
14760;SDS011;7472;45.396;5.272;2022-12-04T11:19:58;26.38;;;17.52;;
14760;SDS011;7472;45.396;5.272;2022-12-04T11:22:25;25.05;;;17.35;;
14760;SDS011;7472;45.396;5.272;2022-12-04T11:24:53;23.88;;;17.75;;
14760;SDS011;7472;45.396;5.272;2022-12-04T11:27:22;21.00;;;16.45;;
14760;SDS011;7472;45.396;5.272;2022-12-04T11:29:50;20.98;;;16.33;;
14760;SDS011;7472;45.396;5.272;2022-12-04T11:32:20;18.42;;;12.85;;
14760;SDS011;7472;45.396;5.272;2022-12-04T11:34:48;16.88;;;12.45;;
14760;SDS011;7472;45.396;5.272;2022-12-04T11:37:17;14.88;;;11.20;;
14760;SDS011;7472;45.396;5.272;2022-12-04T11:39:45;12.25;;;8.15;;
14760;SDS011;7472;45.396;5.272;2022-12-04T11:42:15;13.50;;;9.52;;
14760;SDS011;7472;45.396;5.272;2022-12-04T11:44:48;11.55;;;8.25;;
14760;SDS011;7472;45.396;5.272;2022-12-04T11:47:16;12.05;;;8.27;;
14760;SDS011;7472;45.396;5.272;2022-12-04T11:49:55;11.13;;;8.85;;
14760;SDS011;7472;45.396;5.272;2022-12-04T11:52:27;12.73;;;8.43;;
14760;SDS011;7472;45.396;5.272;2022-12-04T11:55:01;13.52;;;8.40;;
14760;SDS011;7472;45.396;5.272;2022-12-04T11:57:30;10.68;;;8.20;;
14760;SDS011;7472;45.396;5.272;2022-12-04T12:00:08;25.58;;;22.13;;
14760;SDS011;7472;45.396;5.272;2022-12-04T12:02:43;20.85;;;17.15;;
14760;SDS011;7472;45.396;5.272;2022-12-04T12:05:17;23.48;;;17.23;;
14760;SDS011;7472;45.396;5.272;2022-12-04T12:07:53;25.67;;;18.88;;
14760;SDS011;7472;45.396;5.272;2022-12-04T12:10:27;29.15;;;22.27;;
14760;SDS011;7472;45.396;5.272;2022-12-04T12:12:59;34.13;;;25.17;;
14760;SDS011;7472;45.396;5.272;2022-12-04T12:15:34;31.65;;;22.90;;
14760;SDS011;7472;45.396;5.272;2022-12-04T12:18:10;33.45;;;23.95;;
14760;SDS011;7472;45.396;5.272;2022-12-04T12:20:43;32.92;;;24.10;;
14760;SDS011;7472;45.396;5.272;2022-12-04T12:23:20;33.83;;;23.73;;
14760;SDS011;7472;45.396;5.272;2022-12-04T12:25:51;32.47;;;24.90;;
14760;SDS011;7472;45.396;5.272;2022-12-04T12:28:25;34.08;;;24.63;;
14760;SDS011;7472;45.396;5.272;2022-12-04T12:31:03;34.53;;;26.90;;
14760;SDS011;7472;45.396;5.272;2022-12-04T12:33:33;37.00;;;26.67;;
14760;SDS011;7472;45.396;5.272;2022-12-04T12:36:04;36.53;;;27.10;;
14760;SDS011;7472;45.396;5.272;2022-12-04T12:38:33;38.95;;;28.40;;
14760;SDS011;7472;45.396;5.272;2022-12-04T12:41:04;56.45;;;39.88;;
14760;SDS011;7472;45.396;5.272;2022-12-04T12:43:32;48.85;;;33.80;;
14760;SDS011;7472;45.396;5.272;2022-12-04T12:46:03;40.70;;;31.98;;
14760;SDS011;7472;45.396;5.272;2022-12-04T12:48:34;40.97;;;29.42;;
14760;SDS011;7472;45.396;5.272;2022-12-04T12:51:11;39.28;;;28.45;;
14760;SDS011;7472;45.396;5.272;2022-12-04T12:53:42;38.08;;;26.58;;
14760;SDS011;7472;45.396;5.272;2022-12-04T12:56:12;41.95;;;28.92;;
14760;SDS011;7472;45.396;5.272;2022-12-04T12:58:41;43.42;;;32.58;;
14760;SDS011;7472;45.396;5.272;2022-12-04T13:01:11;46.95;;;37.42;;
14760;SDS011;7472;45.396;5.272;2022-12-04T13:03:42;36.55;;;27.13;;
14760;SDS011;7472;45.396;5.272;2022-12-04T13:06:13;36.63;;;26.02;;
14760;SDS011;7472;45.396;5.272;2022-12-04T13:08:43;33.47;;;25.52;;
14760;SDS011;7472;45.396;5.272;2022-12-04T13:11:15;37.63;;;26.65;;
14760;SDS011;7472;45.396;5.272;2022-12-04T13:13:44;39.85;;;27.13;;
14760;SDS011;7472;45.396;5.272;2022-12-04T13:16:13;33.72;;;24.65;;
14760;SDS011;7472;45.396;5.272;2022-12-04T13:18:42;32.08;;;23.88;;
14760;SDS011;7472;45.396;5.272;2022-12-04T13:21:18;29.67;;;22.50;;
14760;SDS011;7472;45.396;5.272;2022-12-04T13:23:52;30.90;;;23.42;;
14760;SDS011;7472;45.396;5.272;2022-12-04T13:26:25;100.78;;;63.78;;
14760;SDS011;7472;45.396;5.272;2022-12-04T13:29:00;46.40;;;33.17;;
14760;SDS011;7472;45.396;5.272;2022-12-04T13:31:31;89.45;;;65.88;;
14760;SDS011;7472;45.396;5.272;2022-12-04T13:34:07;54.78;;;43.63;;
14760;SDS011;7472;45.396;5.272;2022-12-04T13:36:46;88.70;;;73.78;;
14760;SDS011;7472;45.396;5.272;2022-12-04T13:42:15;58.83;;;49.53;;
14760;SDS011;7472;45.396;5.272;2022-12-04T13:44:51;47.13;;;38.67;;
14760;SDS011;7472;45.396;5.272;2022-12-04T13:47:23;58.42;;;48.42;;
14760;SDS011;7472;45.396;5.272;2022-12-04T13:50:06;70.10;;;63.03;;
14760;SDS011;7472;45.396;5.272;2022-12-04T13:52:39;43.38;;;34.25;;
14760;SDS011;7472;45.396;5.272;2022-12-04T13:55:26;40.25;;;29.55;;
14760;SDS011;7472;45.396;5.272;2022-12-04T13:57:54;37.92;;;26.20;;
14760;SDS011;7472;45.396;5.272;2022-12-04T14:00:24;40.15;;;28.13;;
14760;SDS011;7472;45.396;5.272;2022-12-04T14:02:55;41.92;;;30.15;;
14760;SDS011;7472;45.396;5.272;2022-12-04T14:05:27;39.38;;;25.08;;
14760;SDS011;7472;45.396;5.272;2022-12-04T14:07:59;43.58;;;31.05;;
14760;SDS011;7472;45.396;5.272;2022-12-04T14:10:28;45.92;;;32.03;;
14760;SDS011;7472;45.396;5.272;2022-12-04T14:12:58;41.53;;;29.27;;
14760;SDS011;7472;45.396;5.272;2022-12-04T14:15:26;38.50;;;29.35;;
14760;SDS011;7472;45.396;5.272;2022-12-04T14:17:56;31.85;;;25.23;;
14760;SDS011;7472;45.396;5.272;2022-12-04T14:20:25;30.02;;;23.38;;
14760;SDS011;7472;45.396;5.272;2022-12-04T14:22:53;35.38;;;25.67;;
14760;SDS011;7472;45.396;5.272;2022-12-04T14:25:33;121.35;;;89.45;;
14760;SDS011;7472;45.396;5.272;2022-12-04T14:28:11;100.90;;;76.55;;
14760;SDS011;7472;45.396;5.272;2022-12-04T14:30:41;80.90;;;67.70;;
14760;SDS011;7472;45.396;5.272;2022-12-04T14:33:14;26.77;;;20.50;;
14760;SDS011;7472;45.396;5.272;2022-12-04T14:35:43;27.63;;;24.73;;
14760;SDS011;7472;45.396;5.272;2022-12-04T14:38:14;30.85;;;25.23;;
14760;SDS011;7472;45.396;5.272;2022-12-04T14:40:46;22.33;;;17.42;;
14760;SDS011;7472;45.396;5.272;2022-12-04T14:43:15;24.75;;;22.15;;
14760;SDS011;7472;45.396;5.272;2022-12-04T14:45:45;20.83;;;17.60;;
14760;SDS011;7472;45.396;5.272;2022-12-04T14:48:24;24.15;;;18.73;;
14760;SDS011;7472;45.396;5.272;2022-12-04T14:50:56;20.13;;;15.60;;
14760;SDS011;7472;45.396;5.272;2022-12-04T14:53:30;26.48;;;17.25;;